Terminal Aerodrome Forecast
Issued by NWS

Home | Current Version | Previous Version | Text Only | Print | Product List | Glossary On
Versions: 1 2 3 4 5 6 7 8 9 10 11 12 13 14 15 16 17
894
FTUS43 KABR 262327
TAFPIR
TAF
KPIR 262327Z 2700/2724 VRB03KT P6SM VCSH FEW050 OVC090
     FM270300 VRB03KT P6SM OVC050
     FM270900 VRB03KT 5SM BR BKN040
     FM271600 00000KT P6SM SCT045
     FM272000 12007KT P6SM SCT060=

USA.gov is the U.S. government's official web portal to all federal, state and local government web resources and services.